sensor_id;sensor_type;location;lat;lon;timestamp;temperature;humidity
46754;DHT22;32500;50.620;3.400;2022-08-04T00:00:10;27.40;54.90
46754;DHT22;32500;50.620;3.400;2022-08-04T00:02:50;27.40;55.00
46754;DHT22;32500;50.620;3.400;2022-08-04T00:11:06;27.40;55.00
46754;DHT22;32500;50.620;3.400;2022-08-04T00:13:39;27.40;55.00
46754;DHT22;32500;50.620;3.400;2022-08-04T00:16:08;27.40;54.90
46754;DHT22;32500;50.620;3.400;2022-08-04T00:18:56;27.40;54.90
46754;DHT22;32500;50.620;3.400;2022-08-04T00:21:24;27.40;54.90
46754;DHT22;32500;50.620;3.400;2022-08-04T00:23:51;27.40;54.90
46754;DHT22;32500;50.620;3.400;2022-08-04T00:26:17;27.40;55.00
46754;DHT22;32500;50.620;3.400;2022-08-04T00:28:43;27.40;54.90
46754;DHT22;32500;50.620;3.400;2022-08-04T00:31:10;27.40;54.90
46754;DHT22;32500;50.620;3.400;2022-08-04T00:33:41;27.40;55.00
46754;DHT22;32500;50.620;3.400;2022-08-04T00:36:10;27.40;54.80
46754;DHT22;32500;50.620;3.400;2022-08-04T00:38:36;27.40;54.90
46754;DHT22;32500;50.620;3.400;2022-08-04T01:10:24;27.30;55.00
46754;DHT22;32500;50.620;3.400;2022-08-04T01:18:08;27.40;55.10
46754;DHT22;32500;50.620;3.400;2022-08-04T01:21:10;27.30;55.00
46754;DHT22;32500;50.620;3.400;2022-08-04T01:24:23;27.30;55.10
46754;DHT22;32500;50.620;3.400;2022-08-04T01:27:08;27.30;55.10
46754;DHT22;32500;50.620;3.400;2022-08-04T01:29:49;27.30;55.10
46754;DHT22;32500;50.620;3.400;2022-08-04T01:32:51;27.30;55.00
46754;DHT22;32500;50.620;3.400;2022-08-04T01:35:34;27.30;55.00
46754;DHT22;32500;50.620;3.400;2022-08-04T01:38:14;27.30;55.00
46754;DHT22;32500;50.620;3.400;2022-08-04T01:40:41;27.30;55.00
46754;DHT22;32500;50.620;3.400;2022-08-04T01:43:09;27.30;55.00
46754;DHT22;32500;50.620;3.400;2022-08-04T01:45:36;27.30;55.00
46754;DHT22;32500;50.620;3.400;2022-08-04T01:48:02;27.30;55.00
46754;DHT22;32500;50.620;3.400;2022-08-04T01:50:35;27.30;55.00
46754;DHT22;32500;50.620;3.400;2022-08-04T01:53:02;27.30;55.10
46754;DHT22;32500;50.620;3.400;2022-08-04T01:55:28;27.30;55.00
46754;DHT22;32500;50.620;3.400;2022-08-04T01:57:57;27.30;55.00
46754;DHT22;32500;50.620;3.400;2022-08-04T02:00:27;27.30;55.00
46754;DHT22;32500;50.620;3.400;2022-08-04T02:02:55;27.20;54.90
46754;DHT22;32500;50.620;3.400;2022-08-04T02:05:25;27.30;55.00
46754;DHT22;32500;50.620;3.400;2022-08-04T02:08:06;27.30;55.00
46754;DHT22;32500;50.620;3.400;2022-08-04T02:16:00;27.30;55.00
46754;DHT22;32500;50.620;3.400;2022-08-04T02:19:01;27.20;54.90
46754;DHT22;32500;50.620;3.400;2022-08-04T02:21:30;27.20;54.80
46754;DHT22;32500;50.620;3.400;2022-08-04T02:24:02;27.20;54.90
46754;DHT22;32500;50.620;3.400;2022-08-04T02:26:31;27.20;54.90
46754;DHT22;32500;50.620;3.400;2022-08-04T02:29:17;27.20;54.90
46754;DHT22;32500;50.620;3.400;2022-08-04T02:32:03;27.20;54.90
46754;DHT22;32500;50.620;3.400;2022-08-04T02:34:40;27.20;54.90
46754;DHT22;32500;50.620;3.400;2022-08-04T02:37:09;27.20;54.90
46754;DHT22;32500;50.620;3.400;2022-08-04T02:39:36;27.20;55.00
46754;DHT22;32500;50.620;3.400;2022-08-04T02:42:04;27.20;55.00
46754;DHT22;32500;50.620;3.400;2022-08-04T02:44:30;27.20;54.90
46754;DHT22;32500;50.620;3.400;2022-08-04T02:46:59;27.20;54.90
46754;DHT22;32500;50.620;3.400;2022-08-04T02:49:25;27.10;54.80
46754;DHT22;32500;50.620;3.400;2022-08-04T02:51:52;27.20;54.90
46754;DHT22;32500;50.620;3.400;2022-08-04T02:54:22;27.20;55.00
46754;DHT22;32500;50.620;3.400;2022-08-04T02:56:51;27.10;54.90
46754;DHT22;32500;50.620;3.400;2022-08-04T02:59:19;27.20;55.00
46754;DHT22;32500;50.620;3.400;2022-08-04T03:01:47;27.10;54.90
46754;DHT22;32500;50.620;3.400;2022-08-04T03:29:33;27.10;55.00
46754;DHT22;32500;50.620;3.400;2022-08-04T03:37:36;27.10;55.10
46754;DHT22;32500;50.620;3.400;2022-08-04T04:00:18;27.00;55.00
46754;DHT22;32500;50.620;3.400;2022-08-04T04:05:33;27.00;55.00
46754;DHT22;32500;50.620;3.400;2022-08-04T04:11:12;27.00;55.00
46754;DHT22;32500;50.620;3.400;2022-08-04T04:26:00;26.90;55.00
46754;DHT22;32500;50.620;3.400;2022-08-04T04:28:42;26.90;55.10
46754;DHT22;32500;50.620;3.400;2022-08-04T04:42:15;26.90;55.10
46754;DHT22;32500;50.620;3.400;2022-08-04T04:53:37;26.90;55.50
46754;DHT22;32500;50.620;3.400;2022-08-04T04:56:44;26.80;55.40
46754;DHT22;32500;50.620;3.400;2022-08-04T04:59:11;26.60;55.10
46754;DHT22;32500;50.620;3.400;2022-08-04T05:13:36;26.30;55.50
46754;DHT22;32500;50.620;3.400;2022-08-04T05:16:13;26.20;55.50
46754;DHT22;32500;50.620;3.400;2022-08-04T05:18:42;26.20;55.60
46754;DHT22;32500;50.620;3.400;2022-08-04T05:24:01;26.10;56.00
46754;DHT22;32500;50.620;3.400;2022-08-04T05:26:40;26.10;56.50
46754;DHT22;32500;50.620;3.400;2022-08-04T05:29:27;26.20;56.00
46754;DHT22;32500;50.620;3.400;2022-08-04T05:31:54;26.10;56.10
46754;DHT22;32500;50.620;3.400;2022-08-04T05:34:25;26.00;56.30
46754;DHT22;32500;50.620;3.400;2022-08-04T05:36:59;26.10;56.60
46754;DHT22;32500;50.620;3.400;2022-08-04T05:39:35;26.00;56.70
46754;DHT22;32500;50.620;3.400;2022-08-04T05:42:02;26.00;57.00
46754;DHT22;32500;50.620;3.400;2022-08-04T05:44:29;26.00;57.20
46754;DHT22;32500;50.620;3.400;2022-08-04T05:46:56;26.00;57.20
46754;DHT22;32500;50.620;3.400;2022-08-04T05:49:23;26.00;57.30
46754;DHT22;32500;50.620;3.400;2022-08-04T05:51:51;26.00;57.50
46754;DHT22;32500;50.620;3.400;2022-08-04T05:54:17;26.00;58.20
46754;DHT22;32500;50.620;3.400;2022-08-04T05:56:45;26.00;57.90
46754;DHT22;32500;50.620;3.400;2022-08-04T05:59:11;26.00;58.00
46754;DHT22;32500;50.620;3.400;2022-08-04T06:01:39;25.90;58.00
46754;DHT22;32500;50.620;3.400;2022-08-04T06:04:05;25.90;58.10
46754;DHT22;32500;50.620;3.400;2022-08-04T06:06:31;25.90;58.10
46754;DHT22;32500;50.620;3.400;2022-08-04T06:08:57;25.80;58.30
46754;DHT22;32500;50.620;3.400;2022-08-04T06:11:26;25.80;58.30
46754;DHT22;32500;50.620;3.400;2022-08-04T06:13:59;25.80;58.40
46754;DHT22;32500;50.620;3.400;2022-08-04T06:16:30;25.80;58.30
46754;DHT22;32500;50.620;3.400;2022-08-04T06:19:05;25.90;58.50
46754;DHT22;32500;50.620;3.400;2022-08-04T06:21:32;25.80;59.10
46754;DHT22;32500;50.620;3.400;2022-08-04T06:23:59;25.80;59.10
46754;DHT22;32500;50.620;3.400;2022-08-04T06:26:27;25.70;59.30
46754;DHT22;32500;50.620;3.400;2022-08-04T06:28:55;25.60;59.60
46754;DHT22;32500;50.620;3.400;2022-08-04T06:31:22;25.40;60.10
46754;DHT22;32500;50.620;3.400;2022-08-04T06:34:18;25.40;60.40
46754;DHT22;32500;50.620;3.400;2022-08-04T06:36:46;25.20;61.10
46754;DHT22;32500;50.620;3.400;2022-08-04T06:39:12;25.10;61.30
46754;DHT22;32500;50.620;3.400;2022-08-04T06:41:41;24.90;62.00
46754;DHT22;32500;50.620;3.400;2022-08-04T06:44:09;25.00;62.10
46754;DHT22;32500;50.620;3.400;2022-08-04T06:46:38;25.00;62.20
46754;DHT22;32500;50.620;3.400;2022-08-04T06:49:04;25.10;62.10
46754;DHT22;32500;50.620;3.400;2022-08-04T06:51:34;25.20;61.90
46754;DHT22;32500;50.620;3.400;2022-08-04T06:54:01;25.00;62.20
46754;DHT22;32500;50.620;3.400;2022-08-04T06:56:35;25.10;62.30
46754;DHT22;32500;50.620;3.400;2022-08-04T06:59:01;25.00;62.10
46754;DHT22;32500;50.620;3.400;2022-08-04T07:01:28;25.10;62.10
46754;DHT22;32500;50.620;3.400;2022-08-04T07:03:54;25.00;62.20
46754;DHT22;32500;50.620;3.400;2022-08-04T07:06:22;25.20;61.80
46754;DHT22;32500;50.620;3.400;2022-08-04T07:08:50;25.10;62.10
46754;DHT22;32500;50.620;3.400;2022-08-04T07:11:19;25.10;62.10
46754;DHT22;32500;50.620;3.400;2022-08-04T07:13:45;25.20;62.20
46754;DHT22;32500;50.620;3.400;2022-08-04T07:16:13;25.10;62.20
46754;DHT22;32500;50.620;3.400;2022-08-04T07:18:40;25.00;63.20
46754;DHT22;32500;50.620;3.400;2022-08-04T07:21:06;25.00;63.40
46754;DHT22;32500;50.620;3.400;2022-08-04T07:23:32;25.00;63.00
46754;DHT22;32500;50.620;3.400;2022-08-04T07:26:01;25.00;63.00
46754;DHT22;32500;50.620;3.400;2022-08-04T07:28:28;25.00;63.40
46754;DHT22;32500;50.620;3.400;2022-08-04T07:30:56;25.00;63.80
46754;DHT22;32500;50.620;3.400;2022-08-04T07:33:25;25.00;64.30
46754;DHT22;32500;50.620;3.400;2022-08-04T07:35:53;25.00;64.40
46754;DHT22;32500;50.620;3.400;2022-08-04T07:38:21;25.10;64.10
46754;DHT22;32500;50.620;3.400;2022-08-04T07:40:47;24.90;64.50
46754;DHT22;32500;50.620;3.400;2022-08-04T07:43:17;24.80;64.70
46754;DHT22;32500;50.620;3.400;2022-08-04T07:45:43;24.90;64.60
46754;DHT22;32500;50.620;3.400;2022-08-04T07:48:09;25.00;64.60
46754;DHT22;32500;50.620;3.400;2022-08-04T07:50:36;25.00;64.20
46754;DHT22;32500;50.620;3.400;2022-08-04T07:53:03;25.00;64.70
46754;DHT22;32500;50.620;3.400;2022-08-04T07:55:29;24.90;65.20
46754;DHT22;32500;50.620;3.400;2022-08-04T07:57:55;24.70;65.20
46754;DHT22;32500;50.620;3.400;2022-08-04T08:00:21;24.70;65.20
46754;DHT22;32500;50.620;3.400;2022-08-04T08:02:50;24.80;65.60
46754;DHT22;32500;50.620;3.400;2022-08-04T08:05:18;24.80;65.80
46754;DHT22;32500;50.620;3.400;2022-08-04T08:07:45;24.70;65.80
46754;DHT22;32500;50.620;3.400;2022-08-04T08:10:12;24.90;66.50
46754;DHT22;32500;50.620;3.400;2022-08-04T08:12:39;24.70;65.50
46754;DHT22;32500;50.620;3.400;2022-08-04T08:15:07;24.80;65.70
46754;DHT22;32500;50.620;3.400;2022-08-04T08:17:33;24.90;66.10
46754;DHT22;32500;50.620;3.400;2022-08-04T08:19:59;24.80;66.20
46754;DHT22;32500;50.620;3.400;2022-08-04T08:22:26;24.80;66.60
46754;DHT22;32500;50.620;3.400;2022-08-04T08:24:52;24.80;66.60
46754;DHT22;32500;50.620;3.400;2022-08-04T08:27:17;24.70;66.80
46754;DHT22;32500;50.620;3.400;2022-08-04T08:29:43;24.40;68.20
46754;DHT22;32500;50.620;3.400;2022-08-04T08:32:10;24.40;68.50
46754;DHT22;32500;50.620;3.400;2022-08-04T08:34:39;24.60;67.60
46754;DHT22;32500;50.620;3.400;2022-08-04T08:37:33;24.90;67.00
46754;DHT22;32500;50.620;3.400;2022-08-04T08:45:53;25.10;66.40
46754;DHT22;32500;50.620;3.400;2022-08-04T08:51:31;25.20;66.40
46754;DHT22;32500;50.620;3.400;2022-08-04T08:56:54;25.20;66.00
46754;DHT22;32500;50.620;3.400;2022-08-04T09:10:48;24.80;68.10
46754;DHT22;32500;50.620;3.400;2022-08-04T09:13:39;24.90;68.40
46754;DHT22;32500;50.620;3.400;2022-08-04T09:19:10;25.00;68.00
46754;DHT22;32500;50.620;3.400;2022-08-04T09:24:26;25.30;67.00
46754;DHT22;32500;50.620;3.400;2022-08-04T09:26:59;25.30;67.00
46754;DHT22;32500;50.620;3.400;2022-08-04T09:29:35;25.20;67.50
46754;DHT22;32500;50.620;3.400;2022-08-04T09:40:22;25.20;67.10
46754;DHT22;32500;50.620;3.400;2022-08-04T09:43:08;25.10;67.60
46754;DHT22;32500;50.620;3.400;2022-08-04T09:48:20;25.50;66.70
46754;DHT22;32500;50.620;3.400;2022-08-04T09:50:54;25.40;66.50
46754;DHT22;32500;50.620;3.400;2022-08-04T09:56:34;25.10;67.20
46754;DHT22;32500;50.620;3.400;2022-08-04T09:59:10;25.20;66.40
46754;DHT22;32500;50.620;3.400;2022-08-04T10:01:41;25.00;66.80
46754;DHT22;32500;50.620;3.400;2022-08-04T10:04:11;24.90;67.50
46754;DHT22;32500;50.620;3.400;2022-08-04T10:07:01;25.10;66.80
46754;DHT22;32500;50.620;3.400;2022-08-04T10:10:02;25.30;66.30
46754;DHT22;32500;50.620;3.400;2022-08-04T10:12:40;25.40;65.70
46754;DHT22;32500;50.620;3.400;2022-08-04T10:15:25;25.40;65.70
46754;DHT22;32500;50.620;3.400;2022-08-04T10:18:13;25.40;65.90
46754;DHT22;32500;50.620;3.400;2022-08-04T10:21:00;25.30;66.80
46754;DHT22;32500;50.620;3.400;2022-08-04T10:26:44;25.20;67.20
46754;DHT22;32500;50.620;3.400;2022-08-04T10:32:22;25.20;66.60
46754;DHT22;32500;50.620;3.400;2022-08-04T10:35:31;25.30;66.80
46754;DHT22;32500;50.620;3.400;2022-08-04T10:38:12;25.40;66.70
46754;DHT22;32500;50.620;3.400;2022-08-04T10:46:35;25.40;67.50
46754;DHT22;32500;50.620;3.400;2022-08-04T10:54:32;25.60;66.80
46754;DHT22;32500;50.620;3.400;2022-08-04T10:57:07;25.60;66.80
46754;DHT22;32500;50.620;3.400;2022-08-04T11:00:02;25.80;66.80
46754;DHT22;32500;50.620;3.400;2022-08-04T11:05:30;25.80;67.20
46754;DHT22;32500;50.620;3.400;2022-08-04T11:08:03;25.90;67.20
46754;DHT22;32500;50.620;3.400;2022-08-04T11:10:41;25.90;66.20
46754;DHT22;32500;50.620;3.400;2022-08-04T11:13:10;25.90;66.30
46754;DHT22;32500;50.620;3.400;2022-08-04T11:15:40;25.90;66.00
46754;DHT22;32500;50.620;3.400;2022-08-04T11:18:38;26.00;65.90
46754;DHT22;32500;50.620;3.400;2022-08-04T11:21:16;26.00;65.80
46754;DHT22;32500;50.620;3.400;2022-08-04T11:23:51;26.10;65.60
46754;DHT22;32500;50.620;3.400;2022-08-04T11:26:57;26.10;65.30
46754;DHT22;32500;50.620;3.400;2022-08-04T11:32:22;26.20;64.90
46754;DHT22;32500;50.620;3.400;2022-08-04T11:34:52;26.30;64.90
46754;DHT22;32500;50.620;3.400;2022-08-04T11:37:27;26.30;64.40
46754;DHT22;32500;50.620;3.400;2022-08-04T11:40:06;26.30;64.00
46754;DHT22;32500;50.620;3.400;2022-08-04T11:42:42;26.40;64.20
46754;DHT22;32500;50.620;3.400;2022-08-04T11:45:19;26.30;63.60
46754;DHT22;32500;50.620;3.400;2022-08-04T11:47:58;26.40;63.70
46754;DHT22;32500;50.620;3.400;2022-08-04T11:53:00;26.50;63.80
46754;DHT22;32500;50.620;3.400;2022-08-04T11:55:27;26.60;63.60
46754;DHT22;32500;50.620;3.400;2022-08-04T11:57:54;26.60;63.50
46754;DHT22;32500;50.620;3.400;2022-08-04T12:00:22;26.70;63.30
46754;DHT22;32500;50.620;3.400;2022-08-04T12:05:35;26.60;63.10
46754;DHT22;32500;50.620;3.400;2022-08-04T12:16:47;26.70;61.70
46754;DHT22;32500;50.620;3.400;2022-08-04T12:21:53;26.70;61.90
46754;DHT22;32500;50.620;3.400;2022-08-04T12:24:36;26.80;62.20
46754;DHT22;32500;50.620;3.400;2022-08-04T12:27:16;26.80;62.10
46754;DHT22;32500;50.620;3.400;2022-08-04T12:29:43;26.80;62.00
46754;DHT22;32500;50.620;3.400;2022-08-04T12:32:40;26.90;61.80
46754;DHT22;32500;50.620;3.400;2022-08-04T12:40:13;27.10;60.60
46754;DHT22;32500;50.620;3.400;2022-08-04T12:45:23;27.20;60.50
46754;DHT22;32500;50.620;3.400;2022-08-04T12:47:52;27.30;60.00
46754;DHT22;32500;50.620;3.400;2022-08-04T12:50:19;27.30;60.20
46754;DHT22;32500;50.620;3.400;2022-08-04T12:52:50;27.30;59.70
46754;DHT22;32500;50.620;3.400;2022-08-04T12:55:19;27.30;59.60
46754;DHT22;32500;50.620;3.400;2022-08-04T12:57:46;27.30;59.70
46754;DHT22;32500;50.620;3.400;2022-08-04T13:00:27;27.30;59.90
46754;DHT22;32500;50.620;3.400;2022-08-04T13:02:53;27.40;59.60
46754;DHT22;32500;50.620;3.400;2022-08-04T13:05:24;27.30;60.00
46754;DHT22;32500;50.620;3.400;2022-08-04T13:07:53;27.30;59.40
46754;DHT22;32500;50.620;3.400;2022-08-04T13:10:21;27.40;59.40
46754;DHT22;32500;50.620;3.400;2022-08-04T13:12:54;27.40;59.00
46754;DHT22;32500;50.620;3.400;2022-08-04T13:15:22;27.40;58.80
46754;DHT22;32500;50.620;3.400;2022-08-04T13:17:52;27.40;58.90
46754;DHT22;32500;50.620;3.400;2022-08-04T13:20:27;27.40;58.60
46754;DHT22;32500;50.620;3.400;2022-08-04T13:23:08;27.50;58.90
46754;DHT22;32500;50.620;3.400;2022-08-04T13:25:39;27.40;59.20
46754;DHT22;32500;50.620;3.400;2022-08-04T13:28:12;27.40;58.80
46754;DHT22;32500;50.620;3.400;2022-08-04T13:30:38;27.40;58.10
46754;DHT22;32500;50.620;3.400;2022-08-04T13:33:04;27.50;58.10
46754;DHT22;32500;50.620;3.400;2022-08-04T13:35:33;27.40;58.50
46754;DHT22;32500;50.620;3.400;2022-08-04T13:38:26;27.50;57.70
46754;DHT22;32500;50.620;3.400;2022-08-04T13:40:59;27.50;57.20
46754;DHT22;32500;50.620;3.400;2022-08-04T13:43:30;27.50;57.50
46754;DHT22;32500;50.620;3.400;2022-08-04T13:46:05;27.50;56.20
46754;DHT22;32500;50.620;3.400;2022-08-04T13:48:38;27.50;57.20
46754;DHT22;32500;50.620;3.400;2022-08-04T13:51:05;27.50;57.90
46754;DHT22;32500;50.620;3.400;2022-08-04T13:53:33;27.50;57.40
46754;DHT22;32500;50.620;3.400;2022-08-04T13:55:59;27.50;57.80
46754;DHT22;32500;50.620;3.400;2022-08-04T13:58:26;27.50;57.80
46754;DHT22;32500;50.620;3.400;2022-08-04T14:01:08;27.50;58.20
46754;DHT22;32500;50.620;3.400;2022-08-04T14:11:11;27.60;58.10
46754;DHT22;32500;50.620;3.400;2022-08-04T14:13:37;27.70;57.30
46754;DHT22;32500;50.620;3.400;2022-08-04T14:16:13;27.70;57.30
46754;DHT22;32500;50.620;3.400;2022-08-04T14:18:39;27.80;55.90
46754;DHT22;32500;50.620;3.400;2022-08-04T14:21:11;27.80;57.20
46754;DHT22;32500;50.620;3.400;2022-08-04T14:28:47;27.90;56.60
46754;DHT22;32500;50.620;3.400;2022-08-04T14:31:17;27.90;57.10
46754;DHT22;32500;50.620;3.400;2022-08-04T14:33:44;28.00;57.10
46754;DHT22;32500;50.620;3.400;2022-08-04T14:36:11;28.00;57.10
46754;DHT22;32500;50.620;3.400;2022-08-04T14:38:53;28.00;56.30
46754;DHT22;32500;50.620;3.400;2022-08-04T14:41:22;27.90;56.50
46754;DHT22;32500;50.620;3.400;2022-08-04T14:43:56;27.90;56.00
46754;DHT22;32500;50.620;3.400;2022-08-04T14:46:23;28.00;55.50
46754;DHT22;32500;50.620;3.400;2022-08-04T14:49:07;27.90;56.00
46754;DHT22;32500;50.620;3.400;2022-08-04T14:51:39;27.90;56.00
46754;DHT22;32500;50.620;3.400;2022-08-04T14:54:06;27.90;55.20
46754;DHT22;32500;50.620;3.400;2022-08-04T14:56:32;27.90;54.60
46754;DHT22;32500;50.620;3.400;2022-08-04T14:59:04;27.90;54.80
46754;DHT22;32500;50.620;3.400;2022-08-04T15:01:32;27.90;55.40
46754;DHT22;32500;50.620;3.400;2022-08-04T15:04:00;27.90;56.00
46754;DHT22;32500;50.620;3.400;2022-08-04T15:06:28;27.80;55.70
46754;DHT22;32500;50.620;3.400;2022-08-04T15:09:20;27.80;55.60
46754;DHT22;32500;50.620;3.400;2022-08-04T15:11:46;27.80;56.60
46754;DHT22;32500;50.620;3.400;2022-08-04T15:14:12;27.90;56.50
46754;DHT22;32500;50.620;3.400;2022-08-04T15:16:38;27.90;56.70
46754;DHT22;32500;50.620;3.400;2022-08-04T15:19:06;27.90;56.70
46754;DHT22;32500;50.620;3.400;2022-08-04T15:21:32;28.00;56.80
46754;DHT22;32500;50.620;3.400;2022-08-04T15:23:59;28.00;56.30
46754;DHT22;32500;50.620;3.400;2022-08-04T15:26:33;28.00;56.20
46754;DHT22;32500;50.620;3.400;2022-08-04T15:29:06;28.00;56.50
46754;DHT22;32500;50.620;3.400;2022-08-04T15:31:36;28.00;56.20
46754;DHT22;32500;50.620;3.400;2022-08-04T15:34:07;28.00;56.20
46754;DHT22;32500;50.620;3.400;2022-08-04T15:36:52;28.00;56.00
46754;DHT22;32500;50.620;3.400;2022-08-04T15:42:29;28.00;56.40
46754;DHT22;32500;50.620;3.400;2022-08-04T15:50:20;27.90;55.70
46754;DHT22;32500;50.620;3.400;2022-08-04T15:52:59;27.90;55.80
46754;DHT22;32500;50.620;3.400;2022-08-04T15:58:03;27.90;55.90
46754;DHT22;32500;50.620;3.400;2022-08-04T16:16:46;28.00;56.20
46754;DHT22;32500;50.620;3.400;2022-08-04T16:19:48;28.00;56.10
46754;DHT22;32500;50.620;3.400;2022-08-04T16:22:36;28.00;55.70
46754;DHT22;32500;50.620;3.400;2022-08-04T16:25:04;28.00;55.80
46754;DHT22;32500;50.620;3.400;2022-08-04T16:27:41;28.00;55.50
46754;DHT22;32500;50.620;3.400;2022-08-04T16:30:09;27.90;56.00
46754;DHT22;32500;50.620;3.400;2022-08-04T16:32:39;27.90;56.00
46754;DHT22;32500;50.620;3.400;2022-08-04T16:37:42;27.90;56.20
46754;DHT22;32500;50.620;3.400;2022-08-04T16:40:31;27.90;55.80
46754;DHT22;32500;50.620;3.400;2022-08-04T16:43:08;27.80;55.30
46754;DHT22;32500;50.620;3.400;2022-08-04T16:46:00;27.80;55.60
46754;DHT22;32500;50.620;3.400;2022-08-04T16:50:56;27.70;55.00
46754;DHT22;32500;50.620;3.400;2022-08-04T16:53:28;27.70;55.90
46754;DHT22;32500;50.620;3.400;2022-08-04T16:55:57;27.70;56.40
46754;DHT22;32500;50.620;3.400;2022-08-04T16:58:28;27.70;55.50
46754;DHT22;32500;50.620;3.400;2022-08-04T17:00:55;27.70;55.40
46754;DHT22;32500;50.620;3.400;2022-08-04T17:03:21;27.70;54.90
46754;DHT22;32500;50.620;3.400;2022-08-04T17:05:47;27.80;53.70
46754;DHT22;32500;50.620;3.400;2022-08-04T17:08:13;27.80;53.70
46754;DHT22;32500;50.620;3.400;2022-08-04T17:10:42;27.80;53.50
46754;DHT22;32500;50.620;3.400;2022-08-04T17:16:05;27.90;52.50
46754;DHT22;32500;50.620;3.400;2022-08-04T17:18:37;27.80;52.50
46754;DHT22;32500;50.620;3.400;2022-08-04T17:21:09;27.70;52.70
46754;DHT22;32500;50.620;3.400;2022-08-04T17:23:45;27.70;52.60
46754;DHT22;32500;50.620;3.400;2022-08-04T17:26:15;27.70;52.30
46754;DHT22;32500;50.620;3.400;2022-08-04T17:28:45;27.60;52.40
46754;DHT22;32500;50.620;3.400;2022-08-04T17:31:12;27.50;52.30
46754;DHT22;32500;50.620;3.400;2022-08-04T17:33:42;27.50;52.80
46754;DHT22;32500;50.620;3.400;2022-08-04T17:36:09;27.70;52.70
46754;DHT22;32500;50.620;3.400;2022-08-04T17:38:43;27.60;52.10
46754;DHT22;32500;50.620;3.400;2022-08-04T17:41:11;27.60;51.80
46754;DHT22;32500;50.620;3.400;2022-08-04T17:43:46;27.60;51.80
46754;DHT22;32500;50.620;3.400;2022-08-04T17:48:44;27.50;51.60
46754;DHT22;32500;50.620;3.400;2022-08-04T17:51:14;27.50;51.70
46754;DHT22;32500;50.620;3.400;2022-08-04T17:53:40;27.50;51.50
46754;DHT22;32500;50.620;3.400;2022-08-04T17:56:38;27.40;51.80
46754;DHT22;32500;50.620;3.400;2022-08-04T17:59:10;27.40;52.10
46754;DHT22;32500;50.620;3.400;2022-08-04T18:01:42;27.40;51.90
46754;DHT22;32500;50.620;3.400;2022-08-04T18:07:04;27.40;52.70
46754;DHT22;32500;50.620;3.400;2022-08-04T18:09:33;27.40;52.90
46754;DHT22;32500;50.620;3.400;2022-08-04T18:12:09;27.50;52.10
46754;DHT22;32500;50.620;3.400;2022-08-04T18:14:40;27.40;52.90
46754;DHT22;32500;50.620;3.400;2022-08-04T18:17:06;27.50;52.80
46754;DHT22;32500;50.620;3.400;2022-08-04T18:19:32;27.50;52.20
46754;DHT22;32500;50.620;3.400;2022-08-04T18:21:58;27.40;52.20
46754;DHT22;32500;50.620;3.400;2022-08-04T18:24:25;27.40;51.90
46754;DHT22;32500;50.620;3.400;2022-08-04T18:26:51;27.30;52.00
46754;DHT22;32500;50.620;3.400;2022-08-04T18:29:16;27.40;52.20
46754;DHT22;32500;50.620;3.400;2022-08-04T18:31:42;27.40;52.10
46754;DHT22;32500;50.620;3.400;2022-08-04T18:34:08;27.30;51.80
46754;DHT22;32500;50.620;3.400;2022-08-04T18:36:35;27.20;52.00
46754;DHT22;32500;50.620;3.400;2022-08-04T18:39:03;27.20;52.10
46754;DHT22;32500;50.620;3.400;2022-08-04T18:41:29;27.20;52.30
46754;DHT22;32500;50.620;3.400;2022-08-04T18:43:55;27.20;51.90
46754;DHT22;32500;50.620;3.400;2022-08-04T18:46:22;27.10;52.00
46754;DHT22;32500;50.620;3.400;2022-08-04T18:48:48;27.10;52.40
46754;DHT22;32500;50.620;3.400;2022-08-04T18:51:14;27.00;52.00
46754;DHT22;32500;50.620;3.400;2022-08-04T18:53:39;27.00;52.20
46754;DHT22;32500;50.620;3.400;2022-08-04T18:56:05;27.00;52.20
46754;DHT22;32500;50.620;3.400;2022-08-04T18:58:31;27.00;52.10
46754;DHT22;32500;50.620;3.400;2022-08-04T19:00:57;27.00;51.50
46754;DHT22;32500;50.620;3.400;2022-08-04T19:03:22;26.90;52.20
46754;DHT22;32500;50.620;3.400;2022-08-04T19:05:49;26.90;52.20
46754;DHT22;32500;50.620;3.400;2022-08-04T19:08:14;26.90;52.00
46754;DHT22;32500;50.620;3.400;2022-08-04T19:10:40;26.80;52.50
46754;DHT22;32500;50.620;3.400;2022-08-04T19:13:06;26.80;52.40
46754;DHT22;32500;50.620;3.400;2022-08-04T19:15:31;26.80;52.50
46754;DHT22;32500;50.620;3.400;2022-08-04T19:17:57;26.80;52.40
46754;DHT22;32500;50.620;3.400;2022-08-04T19:20:24;26.90;52.10
46754;DHT22;32500;50.620;3.400;2022-08-04T19:22:50;26.90;51.60
46754;DHT22;32500;50.620;3.400;2022-08-04T19:25:16;26.80;51.60
46754;DHT22;32500;50.620;3.400;2022-08-04T19:27:41;26.80;51.30
46754;DHT22;32500;50.620;3.400;2022-08-04T19:30:07;26.80;50.80
46754;DHT22;32500;50.620;3.400;2022-08-04T19:32:33;26.80;51.50
46754;DHT22;32500;50.620;3.400;2022-08-04T19:34:59;26.70;51.20
46754;DHT22;32500;50.620;3.400;2022-08-04T19:37:25;26.70;51.00
46754;DHT22;32500;50.620;3.400;2022-08-04T19:39:50;26.70;50.90
46754;DHT22;32500;50.620;3.400;2022-08-04T19:42:17;26.80;50.40
46754;DHT22;32500;50.620;3.400;2022-08-04T19:44:43;26.60;50.80
46754;DHT22;32500;50.620;3.400;2022-08-04T19:47:09;26.60;50.90
46754;DHT22;32500;50.620;3.400;2022-08-04T19:49:35;26.70;50.30
46754;DHT22;32500;50.620;3.400;2022-08-04T19:52:00;26.70;50.70
46754;DHT22;32500;50.620;3.400;2022-08-04T19:54:26;26.70;50.10
46754;DHT22;32500;50.620;3.400;2022-08-04T19:56:51;26.70;50.20
46754;DHT22;32500;50.620;3.400;2022-08-04T19:59:17;26.70;49.80
46754;DHT22;32500;50.620;3.400;2022-08-04T20:01:43;26.60;50.70
46754;DHT22;32500;50.620;3.400;2022-08-04T20:04:09;26.70;50.70
46754;DHT22;32500;50.620;3.400;2022-08-04T20:06:35;26.60;50.80
46754;DHT22;32500;50.620;3.400;2022-08-04T20:09:00;26.60;50.80
46754;DHT22;32500;50.620;3.400;2022-08-04T20:11:26;26.60;50.00
46754;DHT22;32500;50.620;3.400;2022-08-04T20:13:51;26.50;50.50
46754;DHT22;32500;50.620;3.400;2022-08-04T20:16:17;26.50;51.10
46754;DHT22;32500;50.620;3.400;2022-08-04T20:18:43;26.50;51.20
46754;DHT22;32500;50.620;3.400;2022-08-04T20:21:12;26.50;51.30
46754;DHT22;32500;50.620;3.400;2022-08-04T20:23:43;26.60;51.40
46754;DHT22;32500;50.620;3.400;2022-08-04T20:26:09;26.50;51.50
46754;DHT22;32500;50.620;3.400;2022-08-04T20:28:35;26.60;51.50
46754;DHT22;32500;50.620;3.400;2022-08-04T20:31:01;26.70;51.60
46754;DHT22;32500;50.620;3.400;2022-08-04T20:33:27;26.50;51.60
46754;DHT22;32500;50.620;3.400;2022-08-04T20:35:53;26.50;52.00
46754;DHT22;32500;50.620;3.400;2022-08-04T20:38:18;26.60;52.80
46754;DHT22;32500;50.620;3.400;2022-08-04T20:40:44;26.70;52.90
46754;DHT22;32500;50.620;3.400;2022-08-04T20:43:11;26.80;52.70
46754;DHT22;32500;50.620;3.400;2022-08-04T20:45:37;26.90;52.70
46754;DHT22;32500;50.620;3.400;2022-08-04T20:48:03;26.90;51.60